Time;durP1;ratioP1;P1;durP2;ratioP2;P2;SDS_P1;SDS_P2;PMS_P1;PMS_P2;Temp;Humidity;BMP_temperature;BMP_pressure;BME280_temperature;BME280_humidity;BME280_pressure;Samples;Min_cycle;Max_cycle;Signal;HPM_P1;HPM_P2
2022/10/28 00:01:02;;;;;;;;;;;;;;;;;;8342696;28;28139;-75
2022/10/28 00:05:02;;;;;;;;;;;;;;;;;;8347427;28;29156;-75
2022/10/28 00:09:02;;;;;;;;;;;;;;;;;;8345548;28;29054;-76
2022/10/28 00:13:02;;;;;;;;;;;;;;;;;;8344756;28;27279;-76
2022/10/28 00:17:02;;;;;;;;;;;;;;;;;;8347511;28;27357;-77
2022/10/28 00:21:02;;;;;;;;;;;;;;;;;;8349962;28;28485;-75
2022/10/28 00:25:02;;;;;;;;;;;;;;;;;;8342319;28;27875;-75
2022/10/28 00:29:03;;;;;;;;;;;;;;;;;;8346088;28;28553;-76
2022/10/28 00:33:03;;;;;;;;;;;;;;;;;;8347726;28;28301;-77
2022/10/28 00:37:03;;;;;;;;;;;;;;;;;;8343996;28;28680;-76
2022/10/28 00:41:03;;;;;;;;;;;;;;;;;;8346970;28;28436;-76
2022/10/28 00:45:03;;;;;;;;;;;;;;;;;;8347873;28;27620;-76
2022/10/28 00:49:03;;;;;;;;;;;;;;;;;;8342097;28;28653;-74
2022/10/28 00:53:04;;;;;;;;;;;;;;;;;;8346674;28;28323;-75
2022/10/28 00:57:04;;;;;;;;;;;;;;;;;;8344877;28;27510;-76
2022/10/28 01:01:04;;;;;;;;;;;;;;;;;;8346014;28;28274;-75
2022/10/28 01:05:04;;;;;;;;;;;;;;;;;;8345526;28;28064;-75
2022/10/28 01:09:04;;;;;;;;;;;;;;;;;;8338475;28;27149;-76
2022/10/28 01:13:04;;;;;;;;;;;;;;;;;;8347283;28;28154;-76
2022/10/28 01:17:04;;;;;;;;;;;;;;;;;;8347829;28;28739;-76
2022/10/28 01:21:05;;;;;;;;;;;;;;;;;;8348543;28;28260;-75
2022/10/28 01:25:05;;;;;;;;;;;;;;;;;;8350746;28;27465;-76
2022/10/28 01:29:05;;;;;;;;;;;;;;;;;;8359675;28;28501;-77
2022/10/28 01:33:05;;;;;;;;;;;;;;;;;;8348879;28;29168;-75
2022/10/28 01:37:05;;;;;;;;;;;;;;;;;;8347835;28;28129;-77
2022/10/28 01:41:05;;;;;;;;;;;;;;;;;;8353567;28;29137;-75
2022/10/28 01:45:05;;;;;;;;;;;;;;;;;;8358862;28;28326;-76
2022/10/28 01:49:06;;;;;;;;;;;;;;;;;;8355248;28;27209;-75
2022/10/28 01:53:06;;;;;;;;;;;;;;;;;;8355602;28;27773;-77
2022/10/28 01:57:06;;;;;;;;;;;;;;;;;;8351096;28;28587;-77
2022/10/28 02:01:06;;;;;;;;;;;;;;;;;;8361274;28;27292;-77
2022/10/28 02:05:06;;;;;;;;;;;;;;;;;;8358695;28;28655;-75
2022/10/28 02:09:06;;;;;;;;;;;;;;;;;;8356823;28;27412;-76
2022/10/28 02:13:06;;;;;;;;;;;;;;;;;;8355568;28;27787;-76
2022/10/28 02:17:07;;;;;;;;;;;;;;;;;;8350517;28;28410;-76
2022/10/28 02:21:07;;;;;;;;;;;;;;;;;;8345839;28;28208;-77
2022/10/28 02:25:07;;;;;;;;;;;;;;;;;;8358973;28;28248;-76
2022/10/28 02:29:07;;;;;;;;;;;;;;;;;;8358517;28;28302;-75
2022/10/28 02:33:07;;;;;;;;;;;;;;;;;;8355159;28;29384;-76
2022/10/28 02:37:07;;;;;;;;;;;;;;;;;;8355790;28;28433;-75
2022/10/28 02:41:08;;;;;;;;;;;;;;;;;;8353993;28;27666;-75
2022/10/28 02:45:08;;;;;;;;;;;;;;;;;;8351133;28;27483;-75
2022/10/28 02:49:08;;;;;;;;;;;;;;;;;;8352745;28;28243;-75
2022/10/28 02:53:08;;;;;;;;;;;;;;;;;;8350189;28;28245;-75
2022/10/28 02:57:08;;;;;;;;;;;;;;;;;;8353480;28;27689;-76
2022/10/28 03:01:08;;;;;;;;;;;;;;;;;;8350440;28;27446;-76
2022/10/28 03:05:09;;;;;;;;;;;;;;;;;;8348547;28;28599;-76
2022/10/28 03:09:09;;;;;;;;;;;;;;;;;;8350798;28;28412;-76
2022/10/28 03:13:09;;;;;;;;;;;;;;;;;;8350380;28;27641;-75
2022/10/28 03:17:09;;;;;;;;;;;;;;;;;;8346788;28;27494;-76
2022/10/28 03:21:09;;;;;;;;;;;;;;;;;;8343553;28;27724;-76
2022/10/28 03:25:09;;;;;;;;;;;;;;;;;;8359022;28;28197;-76
2022/10/28 03:29:10;;;;;;;;;;;;;;;;;;8346068;28;27455;-76
2022/10/28 03:33:10;;;;;;;;;;;;;;;;;;8348343;28;28182;-76
2022/10/28 03:37:10;;;;;;;;;;;;;;;;;;8346232;28;27549;-76
2022/10/28 03:41:10;;;;;;;;;;;;;;;;;;8345288;28;27231;-75
2022/10/28 03:45:10;;;;;;;;;;;;;;;;;;8349270;28;28721;-75
2022/10/28 03:49:10;;;;;;;;;;;;;;;;;;8353779;28;27188;-75
2022/10/28 03:53:11;;;;;;;;;;;;;;;;;;8339330;28;28575;-76
2022/10/28 03:57:11;;;;;;;;;;;;;;;;;;8348892;28;27351;-75
2022/10/28 04:01:11;;;;;;;;;;;;;;;;;;8341459;28;27901;-76
2022/10/28 04:05:11;;;;;;;;;;;;;;;;;;8348067;28;28699;-76
2022/10/28 04:09:11;;;;;;;;;;;;;;;;;;8342244;28;28202;-75
2022/10/28 04:13:11;;;;;;;;;;;;;;;;;;8349582;28;27476;-74
2022/10/28 04:17:11;;;;;;;;;;;;;;;;;;8344317;28;27810;-76
2022/10/28 04:21:12;;;;;;;;;;;;;;;;;;8348278;28;29362;-75
2022/10/28 04:25:12;;;;;;;;;;;;;;;;;;8345005;28;27505;-75
2022/10/28 04:29:12;;;;;;;;;;;;;;;;;;8352747;28;28719;-75
2022/10/28 04:33:12;;;;;;;;;;;;;;;;;;8343724;28;28593;-75
2022/10/28 04:37:12;;;;;;;;;;;;;;;;;;8345532;28;28276;-75
2022/10/28 04:41:12;;;;;;;;;;;;;;;;;;8347630;28;28545;-75
2022/10/28 04:45:14;;;;;;;;;;;;;;;;;;8348055;28;28846;-76
2022/10/28 04:49:14;;;;;;;;;;;;;;;;;;8358766;28;28329;-76
2022/10/28 04:53:14;;;;;;;;;;;;;;;;;;8352398;28;27566;-77
2022/10/28 04:57:14;;;;;;;;;;;;;;;;;;8358776;28;28653;-75
2022/10/28 05:01:15;;;;;;;;;;;;;;;;;;8351114;28;28083;-75
2022/10/28 05:05:15;;;;;;;;;;;;;;;;;;8351323;28;28221;-76
2022/10/28 05:09:15;;;;;;;;;;;;;;;;;;8352084;28;28212;-76
2022/10/28 05:13:15;;;;;;;;;;;;;;;;;;8350805;28;27322;-76
2022/10/28 05:17:15;;;;;;;;;;;;;;;;;;8349358;28;28252;-76
2022/10/28 05:21:15;;;;;;;;;;;;;;;;;;8347746;28;28510;-75
2022/10/28 05:25:15;;;;;;;;;;;;;;;;;;8343715;28;27726;-76
2022/10/28 05:29:18;;;;;;;;;;;;;;;;;;8347558;28;27418;-76
2022/10/28 05:33:18;;;;;;;;;;;;;;;;;;8349601;28;28680;-76
2022/10/28 05:37:18;;;;;;;;;;;;;;;;;;8351044;28;28376;-75
2022/10/28 05:41:18;;;;;;;;;;;;;;;;;;8347753;28;27617;-75
2022/10/28 05:45:18;;;;;;;;;;;;;;;;;;8347750;28;28379;-75
2022/10/28 05:49:19;;;;;;;;;;;;;;;;;;8353966;28;28204;-75
2022/10/28 05:53:19;;;;;;;;;;;;;;;;;;8348102;28;27917;-75
2022/10/28 05:57:19;;;;;;;;;;;;;;;;;;8350129;28;28473;-76
2022/10/28 06:01:19;;;;;;;;;;;;;;;;;;8352300;28;28249;-77
2022/10/28 06:05:19;;;;;;;;;;;;;;;;;;8350665;28;28467;-75
2022/10/28 06:09:20;;;;;;;;;;;;;;;;;;8354295;28;28346;-77
2022/10/28 06:13:20;;;;;;;;;;;;;;;;;;8349283;28;27528;-74
2022/10/28 06:17:20;;;;;;;;;;;;;;;;;;8352444;28;28310;-75
2022/10/28 06:21:20;;;;;;;;;;;;;;;;;;8350581;28;28209;-74
2022/10/28 06:25:20;;;;;;;;;;;;;;;;;;8347906;28;27691;-76
2022/10/28 06:29:20;;;;;;;;;;;;;;;;;;8350948;28;29809;-76
2022/10/28 06:33:20;;;;;;;;;;;;;;;;;;8346671;28;27857;-76
2022/10/28 06:37:21;;;;;;;;;;;;;;;;;;8358056;28;29186;-75
2022/10/28 06:41:21;;;;;;;;;;;;;;;;;;8355333;28;28465;-75
2022/10/28 06:45:21;;;;;;;;;;;;;;;;;;8348909;28;27652;-75
2022/10/28 06:49:21;;;;;;;;;;;;;;;;;;8344974;28;27351;-75
2022/10/28 06:53:21;;;;;;;;;;;;;;;;;;8352830;28;28600;-75
2022/10/28 06:57:21;;;;;;;;;;;;;;;;;;8349344;28;27797;-74
2022/10/28 07:01:22;;;;;;;;;;;;;;;;;;8352233;28;29644;-75
2022/10/28 07:05:22;;;;;;;;;;;;;;;;;;8351159;28;29307;-75
2022/10/28 07:09:22;;;;;;;;;;;;;;;;;;8349147;28;27282;-75
2022/10/28 07:13:22;;;;;;;;;;;;;;;;;;8357166;28;28233;-73
2022/10/28 07:17:22;;;;;;;;;;;;;;;;;;8347600;28;28311;-73
2022/10/28 07:21:27;;;;;;;;;;;;;;;;;;8349587;28;29345;-77
2022/10/28 07:25:27;;;;;;;;;;;;;;;;;;8349488;28;28038;-74
2022/10/28 07:29:27;;;;;;;;;;;;;;;;;;8344914;28;27390;-74
2022/10/28 07:33:27;;;;;;;;;;;;;;;;;;8356050;28;28252;-75
2022/10/28 07:37:27;;;;;;;;;;;;;;;;;;8354234;28;28186;-76
2022/10/28 07:41:27;;;;;;;;;;;;;;;;;;8355282;28;28302;-76
2022/10/28 07:45:28;;;;;;;;;;;;;;;;;;8344787;28;28730;-75
2022/10/28 07:49:28;;;;;;;;;;;;;;;;;;8343457;28;27156;-76
2022/10/28 07:53:28;;;;;;;;;;;;;;;;;;8344427;28;28270;-75
2022/10/28 07:57:28;;;;;;;;;;;;;;;;;;8346605;28;28064;-75
2022/10/28 08:01:28;;;;;;;;;;;;;;;;;;8349466;28;28184;-76
2022/10/28 08:05:28;;;;;;;;;;;;;;;;;;8354578;28;28037;-77
2022/10/28 08:09:29;;;;;;;;;;;;;;;;;;8350356;28;28506;-75
2022/10/28 08:13:29;;;;;;;;;;;;;;;;;;8344625;28;27731;-76
2022/10/28 08:17:29;;;;;;;;;;;;;;;;;;8344205;28;28278;-75
2022/10/28 08:21:29;;;;;;;;;;;;;;;;;;8342585;28;28368;-76
2022/10/28 08:25:29;;;;;;;;;;;;;;;;;;8345217;28;29279;-75
2022/10/28 08:29:29;;;;;;;;;;;;;;;;;;8346127;28;27779;-75
2022/10/28 08:33:29;;;;;;;;;;;;;;;;;;8350219;28;29577;-75
2022/10/28 08:37:29;;;;;;;;;;;;;;;;;;8352670;28;29090;-75
2022/10/28 08:41:30;;;;;;;;;;;;;;;;;;8349884;28;27236;-75
2022/10/28 08:45:30;;;;;;;;;;;;;;;;;;8348070;28;46311;-76
2022/10/28 08:49:30;;;;;;;;;;;;;;;;;;8348516;28;29267;-75
2022/10/28 08:53:30;;;;;;;;;;;;;;;;;;8347512;28;28638;-75
2022/10/28 08:57:30;;;;;;;;;;;;;;;;;;8343402;28;28190;-76
2022/10/28 09:01:30;;;;;;;;;;;;;;;;;;8347872;28;28642;-76
2022/10/28 09:05:31;;;;;;;;;;;;;;;;;;8342444;28;27445;-76
2022/10/28 09:09:31;;;;;;;;;;;;;;;;;;8340767;28;28177;-76
2022/10/28 09:13:31;;;;;;;;;;;;;;;;;;8337176;28;29167;-74
2022/10/28 09:17:31;;;;;;;;;;;;;;;;;;8339034;28;29425;-76
2022/10/28 09:21:31;;;;;;;;;;;;;;;;;;8343076;28;27853;-76
2022/10/28 09:25:32;;;;;;;;;;;;;;;;;;8346378;28;28537;-75
2022/10/28 09:29:32;;;;;;;;;;;;;;;;;;8341415;28;28309;-75
2022/10/28 09:33:32;;;;;;;;;;;;;;;;;;8345756;28;28243;-75
2022/10/28 09:37:32;;;;;;;;;;;;;;;;;;8346883;28;27638;-74
2022/10/28 09:41:32;;;;;;;;;;;;;;;;;;8351530;28;28703;-75
2022/10/28 09:45:32;;;;;;;;;;;;;;;;;;8352590;28;28255;-76
2022/10/28 09:49:32;;;;;;;;;;;;;;;;;;8348242;28;28157;-76
2022/10/28 09:53:33;;;;;;;;;;;;;;;;;;8352838;28;28625;-76
2022/10/28 09:57:33;;;;;;;;;;;;;;;;;;8346621;28;28497;-75
2022/10/28 10:01:33;;;;;;;;;;;;;;;;;;8349240;28;27518;-77
2022/10/28 10:05:33;;;;;;;;;;;;;;;;;;8353133;28;28260;-77
2022/10/28 10:09:33;;;;;;;;;;;;;;;;;;8356641;28;28339;-75
2022/10/28 10:13:33;;;;;;;;;;;;;;;;;;8352705;28;28139;-76
2022/10/28 10:17:34;;;;;;;;;;;;;;;;;;8350977;28;27809;-76
2022/10/28 10:21:34;;;;;;;;;;;;;;;;;;8353012;28;29240;-76
2022/10/28 10:25:34;;;;;;;;;;;;;;;;;;8352311;28;27318;-77
2022/10/28 10:29:35;;;;;;;;;;;;;;;;;;8349502;28;29642;-75
2022/10/28 10:33:35;;;;;;;;;;;;;;;;;;8350444;28;27275;-76
2022/10/28 10:37:35;;;;;;;;;;;;;;;;;;8345683;28;28211;-76
2022/10/28 10:41:35;;;;;;;;;;;;;;;;;;8351551;28;28394;-76
2022/10/28 10:45:35;;;;;;;;;;;;;;;;;;8337764;28;28249;-75
2022/10/28 10:49:35;;;;;;;;;;;;;;;;;;8349545;28;27821;-76
2022/10/28 10:53:36;;;;;;;;;;;;;;;;;;8343437;28;27435;-75
2022/10/28 10:57:36;;;;;;;;;;;;;;;;;;8351375;28;27721;-74
2022/10/28 11:01:36;;;;;;;;;;;;;;;;;;8358383;28;28361;-72
2022/10/28 11:05:36;;;;;;;;;;;;;;;;;;8353735;28;27317;-74
2022/10/28 11:09:37;;;;;;;;;;;;;;;;;;8354326;28;28245;-75
2022/10/28 11:13:37;;;;;;;;;;;;;;;;;;8354215;28;28190;-74
2022/10/28 11:17:37;;;;;;;;;;;;;;;;;;8354195;28;27285;-75
2022/10/28 11:21:41;;;;;;;;;;;;;;;;;;8349473;28;27133;-75
2022/10/28 11:25:41;;;;;;;;;;;;;;;;;;8347527;28;27530;-75
2022/10/28 11:29:42;;;;;;;;;;;;;;;;;;8353815;28;28494;-75
2022/10/28 11:33:42;;;;;;;;;;;;;;;;;;8357303;28;28282;-75
2022/10/28 11:37:42;;;;;;;;;;;;;;;;;;8349471;28;27527;-74
2022/10/28 11:41:42;;;;;;;;;;;;;;;;;;8350501;28;27586;-73
2022/10/28 11:45:42;;;;;;;;;;;;;;;;;;8342725;28;29427;-73
2022/10/28 11:49:42;;;;;;;;;;;;;;;;;;8351075;28;28329;-73
2022/10/28 11:53:42;;;;;;;;;;;;;;;;;;8345874;28;28173;-74
2022/10/28 11:57:43;;;;;;;;;;;;;;;;;;8354482;28;28595;-74
2022/10/28 12:01:43;;;;;;;;;;;;;;;;;;8354816;28;28359;-74
2022/10/28 12:05:43;;;;;;;;;;;;;;;;;;8352940;28;29296;-73
2022/10/28 12:09:43;;;;;;;;;;;;;;;;;;8351611;28;28683;-75
2022/10/28 12:13:43;;;;;;;;;;;;;;;;;;8339512;28;27727;-74
2022/10/28 12:17:43;;;;;;;;;;;;;;;;;;8345475;28;28454;-74
2022/10/28 12:21:44;;;;;;;;;;;;;;;;;;8343604;28;27483;-76
2022/10/28 12:25:44;;;;;;;;;;;;;;;;;;8349778;28;28617;-75
2022/10/28 12:29:44;;;;;;;;;;;;;;;;;;8347755;28;28135;-73
2022/10/28 12:33:44;;;;;;;;;;;;;;;;;;8347648;28;28442;-74
2022/10/28 12:37:44;;;;;;;;;;;;;;;;;;8351596;28;27804;-75
2022/10/28 12:41:44;;;;;;;;;;;;;;;;;;8347444;28;27432;-72
2022/10/28 12:45:44;;;;;;;;;;;;;;;;;;8347730;28;28092;-73
2022/10/28 12:49:45;;;;;;;;;;;;;;;;;;8345899;28;28314;-75
2022/10/28 12:53:45;;;;;;;;;;;;;;;;;;8343019;28;28079;-74
2022/10/28 12:57:45;;;;;;;;;;;;;;;;;;8346273;28;27513;-76
2022/10/28 13:01:45;;;;;;;;;;;;;;;;;;8350163;28;28158;-74
2022/10/28 13:05:45;;;;;;;;;;;;;;;;;;8346114;28;27731;-75
2022/10/28 13:09:45;;;;;;;;;;;;;;;;;;8354501;28;29094;-75
2022/10/28 13:13:46;;;;;;;;;;;;;;;;;;8350275;28;28449;-77
2022/10/28 13:17:46;;;;;;;;;;;;;;;;;;8357244;28;29675;-76
2022/10/28 13:21:46;;;;;;;;;;;;;;;;;;8351471;28;28173;-74
2022/10/28 13:25:46;;;;;;;;;;;;;;;;;;8354717;28;27121;-76
2022/10/28 13:29:46;;;;;;;;;;;;;;;;;;8360396;28;28739;-74
2022/10/28 13:33:46;;;;;;;;;;;;;;;;;;8358497;28;27066;-74
2022/10/28 13:37:46;;;;;;;;;;;;;;;;;;8364445;28;28118;-74
2022/10/28 13:41:47;;;;;;;;;;;;;;;;;;8355182;28;28103;-75
2022/10/28 13:45:47;;;;;;;;;;;;;;;;;;8354605;28;28196;-73
2022/10/28 13:49:47;;;;;;;;;;;;;;;;;;8357132;28;27315;-74
2022/10/28 13:53:49;;;;;;;;;;;;;;;;;;8362412;28;28456;-74
2022/10/28 13:57:49;;;;;;;;;;;;;;;;;;8360132;28;28276;-72
2022/10/28 14:01:50;;;;;;;;;;;;;;;;;;8357266;28;27556;-74
2022/10/28 14:05:50;;;;;;;;;;;;;;;;;;8357535;28;27902;-73
2022/10/28 14:09:50;;;;;;;;;;;;;;;;;;8361634;28;28614;-74
2022/10/28 14:13:50;;;;;;;;;;;;;;;;;;8354807;28;27196;-75
2022/10/28 14:17:50;;;;;;;;;;;;;;;;;;8356217;28;28073;-74
2022/10/28 14:21:51;;;;;;;;;;;;;;;;;;8365083;28;31264;-75
2022/10/28 14:25:53;;;;;;;;;;;;;;;;;;8357068;28;28282;-73
2022/10/28 14:29:53;;;;;;;;;;;;;;;;;;8356143;28;28008;-74
2022/10/28 14:33:53;;;;;;;;;;;;;;;;;;8351233;28;27444;-72
2022/10/28 14:37:53;;;;;;;;;;;;;;;;;;8357927;28;28522;-73
2022/10/28 14:41:54;;;;;;;;;;;;;;;;;;8357849;28;28589;-73
2022/10/28 14:45:54;;;;;;;;;;;;;;;;;;8351059;28;27873;-73
2022/10/28 14:49:54;;;;;;;;;;;;;;;;;;8354396;28;28693;-73
2022/10/28 14:53:56;;;;;;;;;;;;;;;;;;8354554;28;28327;-73
2022/10/28 14:57:56;;;;;;;;;;;;;;;;;;8354437;28;28082;-74
2022/10/28 15:01:56;;;;;;;;;;;;;;;;;;8354583;28;28210;-75
2022/10/28 15:05:56;;;;;;;;;;;;;;;;;;8351401;28;28537;-74
2022/10/28 15:09:56;;;;;;;;;;;;;;;;;;8351198;28;28099;-75
2022/10/28 15:13:57;;;;;;;;;;;;;;;;;;8348042;28;27737;-81
2022/10/28 15:17:57;;;;;;;;;;;;;;;;;;8349901;28;28593;-75
2022/10/28 15:21:57;;;;;;;;;;;;;;;;;;8350279;28;27554;-74
2022/10/28 15:25:57;;;;;;;;;;;;;;;;;;8345163;28;28171;-76
2022/10/28 15:29:57;;;;;;;;;;;;;;;;;;8348945;28;28319;-75
2022/10/28 15:33:57;;;;;;;;;;;;;;;;;;8347529;28;29879;-73
2022/10/28 15:37:57;;;;;;;;;;;;;;;;;;8348312;28;28355;-74
2022/10/28 15:41:58;;;;;;;;;;;;;;;;;;8347363;28;28666;-75
2022/10/28 15:45:58;;;;;;;;;;;;;;;;;;8347544;28;28624;-72
2022/10/28 15:49:59;;;;;;;;;;;;;;;;;;8349329;28;28441;-72
2022/10/28 15:53:59;;;;;;;;;;;;;;;;;;8340970;28;28647;-73
2022/10/28 15:57:59;;;;;;;;;;;;;;;;;;8340135;28;28460;-74
2022/10/28 16:02:02;;;;;;;;;;;;;;;;;;8345953;28;48593;-73
2022/10/28 16:06:02;;;;;;;;;;;;;;;;;;8344021;28;27468;-75
2022/10/28 16:10:02;;;;;;;;;;;;;;;;;;8349244;28;28318;-74
2022/10/28 16:14:02;;;;;;;;;;;;;;;;;;8352534;28;28686;-74
2022/10/28 16:18:02;;;;;;;;;;;;;;;;;;8346942;28;27918;-74
2022/10/28 16:22:02;;;;;;;;;;;;;;;;;;8355368;28;28685;-74
2022/10/28 16:26:02;;;;;;;;;;;;;;;;;;8353568;28;28169;-74
2022/10/28 16:30:02;;;;;;;;;;;;;;;;;;8353489;28;29269;-75
2022/10/28 16:34:03;;;;;;;;;;;;;;;;;;8351784;28;28598;-73
2022/10/28 16:38:03;;;;;;;;;;;;;;;;;;8349513;28;27319;-73
2022/10/28 16:42:03;;;;;;;;;;;;;;;;;;8354253;28;28613;-74
2022/10/28 16:46:03;;;;;;;;;;;;;;;;;;8353736;28;27507;-74
2022/10/28 16:50:03;;;;;;;;;;;;;;;;;;8360416;28;29414;-75
2022/10/28 16:54:03;;;;;;;;;;;;;;;;;;8356835;28;28234;-75
2022/10/28 16:58:03;;;;;;;;;;;;;;;;;;8363538;28;28405;-75
2022/10/28 17:02:04;;;;;;;;;;;;;;;;;;8362799;28;28186;-75
2022/10/28 17:06:04;;;;;;;;;;;;;;;;;;8357065;28;28309;-74
2022/10/28 17:10:05;;;;;;;;;;;;;;;;;;8360221;28;28333;-72
2022/10/28 17:14:05;;;;;;;;;;;;;;;;;;8354723;28;28393;-74
2022/10/28 17:18:06;;;;;;;;;;;;;;;;;;8356635;28;27621;-74
2022/10/28 17:22:06;;;;;;;;;;;;;;;;;;8357474;28;27638;-73
2022/10/28 17:26:06;;;;;;;;;;;;;;;;;;8357404;28;28179;-74
2022/10/28 17:30:06;;;;;;;;;;;;;;;;;;8363837;28;29334;-74
2022/10/28 17:34:06;;;;;;;;;;;;;;;;;;8355644;28;27344;-74
2022/10/28 17:38:06;;;;;;;;;;;;;;;;;;8354846;28;28527;-75
2022/10/28 17:42:06;;;;;;;;;;;;;;;;;;8355782;28;28456;-74
2022/10/28 17:46:07;;;;;;;;;;;;;;;;;;8353406;28;27747;-73
2022/10/28 17:50:07;;;;;;;;;;;;;;;;;;8357181;28;28732;-73
2022/10/28 17:54:07;;;;;;;;;;;;;;;;;;8351964;28;27569;-73
2022/10/28 17:58:08;;;;;;;;;;;;;;;;;;8352763;28;29079;-75
2022/10/28 18:02:08;;;;;;;;;;;;;;;;;;8360745;28;28447;-75
2022/10/28 18:06:09;;;;;;;;;;;;;;;;;;8347769;28;27268;-75
2022/10/28 18:10:09;;;;;;;;;;;;;;;;;;8349358;28;27842;-75
2022/10/28 18:14:09;;;;;;;;;;;;;;;;;;8347525;28;27516;-75
2022/10/28 18:18:09;;;;;;;;;;;;;;;;;;8347734;28;28621;-73
2022/10/28 18:22:09;;;;;;;;;;;;;;;;;;8342484;28;28564;-75
2022/10/28 18:26:09;;;;;;;;;;;;;;;;;;8347870;28;28678;-74
2022/10/28 18:30:10;;;;;;;;;;;;;;;;;;8341842;28;28717;-74
2022/10/28 18:34:10;;;;;;;;;;;;;;;;;;8349631;28;28574;-74
2022/10/28 18:38:10;;;;;;;;;;;;;;;;;;8348057;28;27605;-74
2022/10/28 18:42:10;;;;;;;;;;;;;;;;;;8346586;28;27558;-75
2022/10/28 18:46:10;;;;;;;;;;;;;;;;;;8354538;28;27415;-73
2022/10/28 18:50:10;;;;;;;;;;;;;;;;;;8355307;28;27987;-74
2022/10/28 18:54:11;;;;;;;;;;;;;;;;;;8351623;28;27199;-74
2022/10/28 18:58:13;;;;;;;;;;;;;;;;;;8352178;28;28056;-74
2022/10/28 19:02:13;;;;;;;;;;;;;;;;;;8353491;28;28484;-75
2022/10/28 19:06:13;;;;;;;;;;;;;;;;;;8353261;28;27411;-75
2022/10/28 19:10:13;;;;;;;;;;;;;;;;;;8352415;28;28412;-76
2022/10/28 19:14:13;;;;;;;;;;;;;;;;;;8341937;28;28061;-75
2022/10/28 19:18:14;;;;;;;;;;;;;;;;;;8350108;28;27904;-75
2022/10/28 19:22:14;;;;;;;;;;;;;;;;;;8346780;28;27391;-75
2022/10/28 19:26:14;;;;;;;;;;;;;;;;;;8352010;28;28205;-74
2022/10/28 19:30:14;;;;;;;;;;;;;;;;;;8354120;28;27333;-75
2022/10/28 19:34:14;;;;;;;;;;;;;;;;;;8355295;28;27370;-76
2022/10/28 19:38:14;;;;;;;;;;;;;;;;;;8354413;28;27338;-76
2022/10/28 19:42:15;;;;;;;;;;;;;;;;;;8350887;28;27935;-74
2022/10/28 19:46:15;;;;;;;;;;;;;;;;;;8348660;28;28620;-75
2022/10/28 19:50:15;;;;;;;;;;;;;;;;;;8352041;28;27521;-76
2022/10/28 19:54:15;;;;;;;;;;;;;;;;;;8348265;28;28116;-75
2022/10/28 19:58:15;;;;;;;;;;;;;;;;;;8350379;28;28424;-74
2022/10/28 20:02:15;;;;;;;;;;;;;;;;;;8352506;28;28406;-75
2022/10/28 20:06:15;;;;;;;;;;;;;;;;;;8354740;28;27111;-75
2022/10/28 20:10:16;;;;;;;;;;;;;;;;;;8353941;28;28344;-75
2022/10/28 20:14:16;;;;;;;;;;;;;;;;;;8352803;28;28476;-76
2022/10/28 20:18:16;;;;;;;;;;;;;;;;;;8351249;28;27365;-75
2022/10/28 20:22:16;;;;;;;;;;;;;;;;;;8350451;28;27396;-75
2022/10/28 20:26:16;;;;;;;;;;;;;;;;;;8357567;28;29616;-75
2022/10/28 20:30:16;;;;;;;;;;;;;;;;;;8353558;28;27445;-75
2022/10/28 20:34:16;;;;;;;;;;;;;;;;;;8353602;28;27429;-75
2022/10/28 20:38:17;;;;;;;;;;;;;;;;;;8364270;28;29442;-75
2022/10/28 20:42:17;;;;;;;;;;;;;;;;;;8355760;28;27703;-76
2022/10/28 20:46:17;;;;;;;;;;;;;;;;;;7410102;28;10000700;-74
2022/10/28 20:50:18;;;;;;;;;;;;;;;;;;8268095;28;27645;-75
2022/10/28 20:54:18;;;;;;;;;;;;;;;;;;8354373;28;27657;-75
2022/10/28 20:58:18;;;;;;;;;;;;;;;;;;8357867;28;27328;-76
2022/10/28 21:02:18;;;;;;;;;;;;;;;;;;8360619;28;27525;-75
2022/10/28 21:06:18;;;;;;;;;;;;;;;;;;8357696;28;27510;-75
2022/10/28 21:10:18;;;;;;;;;;;;;;;;;;8356127;28;27402;-74
2022/10/28 21:14:18;;;;;;;;;;;;;;;;;;8328573;28;118478;-74
2022/10/28 22:15:03;;;;;;;;;;;;;;;;;;10411478;22;47724;-78
2022/10/28 22:19:03;;;;;;;;;;;;;;;;;;10417088;22;27492;-77
2022/10/28 22:23:03;;;;;;;;;;;;;;;;;;10411761;22;27326;-77
2022/10/28 22:27:03;;;;;;;;;;;;;;;;;;10407451;22;27035;-77
2022/10/28 22:31:03;;;;;;;;;;;;;;;;;;10385641;22;28782;-78
2022/10/28 22:35:04;;;;;;;;;;;;;;;;;;10385603;22;28599;-77
2022/10/28 22:39:04;;;;;;;;;;;;;;;;;;10408867;22;27524;-76
2022/10/28 22:43:04;;;;;;;;;;;;;;;;;;10404870;22;27277;-77
2022/10/28 22:47:04;;;;;;;;;;;;;;;;;;10409011;22;27243;-75
2022/10/28 22:51:04;;;;;;;;;;;;;;;;;;10380619;22;28522;-78
2022/10/28 22:55:04;;;;;;;;;;;;;;;;;;10406489;22;27565;-78
2022/10/28 22:59:04;;;;;;;;;;;;;;;;;;10381974;22;28454;-77
2022/10/28 23:03:04;;;;;;;;;;;;;;;;;;10381339;22;28219;-76
2022/10/28 23:07:04;;;;;;;;;;;;;;;;;;10408249;22;27257;-77
2022/10/28 23:11:05;;;;;;;;;;;;;;;;;;10396935;22;27313;-75
2022/10/28 23:15:05;;;;;;;;;;;;;;;;;;10405675;22;27426;-78
2022/10/28 23:19:05;;;;;;;;;;;;;;;;;;10404639;22;27292;-77
2022/10/28 23:23:05;;;;;;;;;;;;;;;;;;10377302;22;29395;-77
2022/10/28 23:27:05;;;;;;;;;;;;;;;;;;10379839;22;28526;-76
2022/10/28 23:31:05;;;;;;;;;;;;;;;;;;10406068;22;27308;-77
2022/10/28 23:35:05;;;;;;;;;;;;;;;;;;10379467;22;29449;-76
2022/10/28 23:39:05;;;;;;;;;;;;;;;;;;10408295;22;27176;-75
2022/10/28 23:43:05;;;;;;;;;;;;;;;;;;10406977;22;27568;-76
2022/10/28 23:47:05;;;;;;;;;;;;;;;;;;10407816;22;27130;-77
2022/10/28 23:51:05;;;;;;;;;;;;;;;;;;10379739;22;28462;-76
2022/10/28 23:55:06;;;;;;;;;;;;;;;;;;10406524;22;27386;-78
2022/10/28 23:59:06;;;;;;;;;;;;;;;;;;10408017;22;27259;-76
